sensor_id;sensor_type;location;lat;lon;timestamp;temperature;humidity
40848;DHT22;26570;50.962;5.340;2023-04-29T00:15:18;12.40;99.90
40848;DHT22;26570;50.962;5.340;2023-04-29T00:56:00;12.10;99.90
40848;DHT22;26570;50.962;5.340;2023-04-29T01:20:31;11.90;99.90
40848;DHT22;26570;50.962;5.340;2023-04-29T01:23:49;12.10;99.90
40848;DHT22;26570;50.962;5.340;2023-04-29T01:38:46;11.80;99.90
40848;DHT22;26570;50.962;5.340;2023-04-29T01:46:05;11.60;99.90
40848;DHT22;26570;50.962;5.340;2023-04-29T01:57:51;11.40;99.90
40848;DHT22;26570;50.962;5.340;2023-04-29T02:05:30;11.50;99.90
40848;DHT22;26570;50.962;5.340;2023-04-29T02:08:55;11.60;99.90
40848;DHT22;26570;50.962;5.340;2023-04-29T02:23:48;11.40;99.90
40848;DHT22;26570;50.962;5.340;2023-04-29T02:47:06;10.40;99.90
40848;DHT22;26570;50.962;5.340;2023-04-29T03:07:17;11.00;99.90
40848;DHT22;26570;50.962;5.340;2023-04-29T03:22:51;10.70;99.90
40848;DHT22;26570;50.962;5.340;2023-04-29T03:42:48;10.70;99.90
40848;DHT22;26570;50.962;5.340;2023-04-29T03:46:56;10.90;99.90
40848;DHT22;26570;50.962;5.340;2023-04-29T04:02:13;11.20;99.90
40848;DHT22;26570;50.962;5.340;2023-04-29T04:25:09;11.00;99.90
40848;DHT22;26570;50.962;5.340;2023-04-29T04:29:32;12.40;99.90
40848;DHT22;26570;50.962;5.340;2023-04-29T04:41:21;11.10;99.90
40848;DHT22;26570;50.962;5.340;2023-04-29T04:45:08;11.30;99.90
40848;DHT22;26570;50.962;5.340;2023-04-29T04:48:12;11.10;99.90
40848;DHT22;26570;50.962;5.340;2023-04-29T04:51:12;10.90;99.90
40848;DHT22;26570;50.962;5.340;2023-04-29T04:57:38;10.90;99.90
40848;DHT22;26570;50.962;5.340;2023-04-29T05:09:33;10.90;99.90
40848;DHT22;26570;50.962;5.340;2023-04-29T05:13:14;10.80;99.90
40848;DHT22;26570;50.962;5.340;2023-04-29T05:27:33;11.00;99.90
40848;DHT22;26570;50.962;5.340;2023-04-29T05:31:10;11.00;99.90
40848;DHT22;26570;50.962;5.340;2023-04-29T05:50:39;10.60;99.90
40848;DHT22;26570;50.962;5.340;2023-04-29T06:01:06;10.60;99.90
40848;DHT22;26570;50.962;5.340;2023-04-29T06:04:34;10.90;99.90
40848;DHT22;26570;50.962;5.340;2023-04-29T06:07:34;11.10;99.90
40848;DHT22;26570;50.962;5.340;2023-04-29T06:14:37;10.90;99.90
40848;DHT22;26570;50.962;5.340;2023-04-29T06:22:04;11.00;99.90
40848;DHT22;26570;50.962;5.340;2023-04-29T06:36:47;11.20;99.90
40848;DHT22;26570;50.962;5.340;2023-04-29T07:07:47;11.80;99.90
40848;DHT22;26570;50.962;5.340;2023-04-29T07:11:25;11.50;99.90
40848;DHT22;26570;50.962;5.340;2023-04-29T07:31:38;10.70;99.90
40848;DHT22;26570;50.962;5.340;2023-04-29T07:35:25;11.50;99.90
40848;DHT22;26570;50.962;5.340;2023-04-29T07:43:28;11.80;99.90
40848;DHT22;26570;50.962;5.340;2023-04-29T07:47:25;11.80;99.90
40848;DHT22;26570;50.962;5.340;2023-04-29T08:02:08;11.50;99.90
40848;DHT22;26570;50.962;5.340;2023-04-29T08:05:36;11.40;99.90
40848;DHT22;26570;50.962;5.340;2023-04-29T08:13:09;11.10;99.90
40848;DHT22;26570;50.962;5.340;2023-04-29T08:15:58;11.40;99.90
40848;DHT22;26570;50.962;5.340;2023-04-29T08:31:19;11.90;99.90
40848;DHT22;26570;50.962;5.340;2023-04-29T08:38:21;12.30;99.90
40848;DHT22;26570;50.962;5.340;2023-04-29T08:42:07;12.20;99.90
40848;DHT22;26570;50.962;5.340;2023-04-29T08:52:16;12.70;99.90
40848;DHT22;26570;50.962;5.340;2023-04-29T08:58:50;12.50;99.90
40848;DHT22;26570;50.962;5.340;2023-04-29T09:05:31;12.50;99.90
40848;DHT22;26570;50.962;5.340;2023-04-29T09:08:32;12.40;99.90
40848;DHT22;26570;50.962;5.340;2023-04-29T09:18:58;12.80;99.90
40848;DHT22;26570;50.962;5.340;2023-04-29T09:22:54;13.10;99.90
40848;DHT22;26570;50.962;5.340;2023-04-29T09:26:10;13.20;99.90
40848;DHT22;26570;50.962;5.340;2023-04-29T09:29:45;13.70;99.90
40848;DHT22;26570;50.962;5.340;2023-04-29T09:33:16;13.90;99.90
40848;DHT22;26570;50.962;5.340;2023-04-29T09:39:36;14.00;99.90
40848;DHT22;26570;50.962;5.340;2023-04-29T09:43:10;14.50;99.90
40848;DHT22;26570;50.962;5.340;2023-04-29T09:46:03;14.70;99.90
40848;DHT22;26570;50.962;5.340;2023-04-29T09:49:27;15.20;99.90
40848;DHT22;26570;50.962;5.340;2023-04-29T09:52:45;15.20;99.90
40848;DHT22;26570;50.962;5.340;2023-04-29T09:56:03;15.30;99.90
40848;DHT22;26570;50.962;5.340;2023-04-29T09:59:27;15.50;99.90
40848;DHT22;26570;50.962;5.340;2023-04-29T10:02:20;15.40;99.90
40848;DHT22;26570;50.962;5.340;2023-04-29T10:05:13;15.60;99.90
40848;DHT22;26570;50.962;5.340;2023-04-29T10:08:22;15.60;99.90
40848;DHT22;26570;50.962;5.340;2023-04-29T10:11:17;15.40;99.90
40848;DHT22;26570;50.962;5.340;2023-04-29T10:14:06;15.40;99.90
40848;DHT22;26570;50.962;5.340;2023-04-29T10:17:21;15.30;99.90
40848;DHT22;26570;50.962;5.340;2023-04-29T10:20:33;15.30;99.90
40848;DHT22;26570;50.962;5.340;2023-04-29T10:23:44;15.40;99.90
40848;DHT22;26570;50.962;5.340;2023-04-29T10:26:59;15.60;99.90
40848;DHT22;26570;50.962;5.340;2023-04-29T10:30:29;16.10;99.90
40848;DHT22;26570;50.962;5.340;2023-04-29T10:33:36;16.20;99.90
40848;DHT22;26570;50.962;5.340;2023-04-29T10:36:45;16.10;99.90
40848;DHT22;26570;50.962;5.340;2023-04-29T10:43:41;15.90;99.90
40848;DHT22;26570;50.962;5.340;2023-04-29T10:46:31;15.90;99.90
40848;DHT22;26570;50.962;5.340;2023-04-29T10:49:22;15.90;99.90
40848;DHT22;26570;50.962;5.340;2023-04-29T10:55:46;16.00;99.90
40848;DHT22;26570;50.962;5.340;2023-04-29T10:58:38;16.30;99.90
40848;DHT22;26570;50.962;5.340;2023-04-29T11:01:58;16.60;99.90
40848;DHT22;26570;50.962;5.340;2023-04-29T11:05:07;16.80;99.90
40848;DHT22;26570;50.962;5.340;2023-04-29T11:14:56;17.40;99.90
40848;DHT22;26570;50.962;5.340;2023-04-29T11:17:49;17.60;99.90
40848;DHT22;26570;50.962;5.340;2023-04-29T11:23:57;17.90;99.90
40848;DHT22;26570;50.962;5.340;2023-04-29T11:26:52;18.10;99.90
40848;DHT22;26570;50.962;5.340;2023-04-29T11:29:42;17.90;99.90
40848;DHT22;26570;50.962;5.340;2023-04-29T11:32:59;18.10;99.90
40848;DHT22;26570;50.962;5.340;2023-04-29T11:36:01;18.00;99.90
40848;DHT22;26570;50.962;5.340;2023-04-29T11:38:52;18.00;99.90
40848;DHT22;26570;50.962;5.340;2023-04-29T11:41:43;18.10;99.90
40848;DHT22;26570;50.962;5.340;2023-04-29T11:44:34;18.30;99.90
40848;DHT22;26570;50.962;5.340;2023-04-29T11:47:46;18.40;99.90
40848;DHT22;26570;50.962;5.340;2023-04-29T11:50:37;18.40;99.90
40848;DHT22;26570;50.962;5.340;2023-04-29T11:53:32;18.80;99.90
40848;DHT22;26570;50.962;5.340;2023-04-29T11:56:22;19.00;99.90
40848;DHT22;26570;50.962;5.340;2023-04-29T11:59:14;19.00;99.90
40848;DHT22;26570;50.962;5.340;2023-04-29T12:02:05;19.10;99.90
40848;DHT22;26570;50.962;5.340;2023-04-29T12:05:13;18.90;99.90
40848;DHT22;26570;50.962;5.340;2023-04-29T12:08:02;18.80;99.90
40848;DHT22;26570;50.962;5.340;2023-04-29T12:11:16;18.90;99.90
40848;DHT22;26570;50.962;5.340;2023-04-29T12:14:04;18.80;99.90
40848;DHT22;26570;50.962;5.340;2023-04-29T12:16:55;18.60;99.90
40848;DHT22;26570;50.962;5.340;2023-04-29T12:20:19;18.30;99.90
40848;DHT22;26570;50.962;5.340;2023-04-29T12:23:21;18.00;99.90
40848;DHT22;26570;50.962;5.340;2023-04-29T12:26:20;17.90;99.90
40848;DHT22;26570;50.962;5.340;2023-04-29T12:29:12;17.60;99.90
40848;DHT22;26570;50.962;5.340;2023-04-29T12:32:26;17.10;99.90
40848;DHT22;26570;50.962;5.340;2023-04-29T12:35:39;16.90;99.90
40848;DHT22;26570;50.962;5.340;2023-04-29T12:38:55;17.40;99.90
40848;DHT22;26570;50.962;5.340;2023-04-29T12:41:49;17.30;99.90
40848;DHT22;26570;50.962;5.340;2023-04-29T12:45:05;17.00;99.90
40848;DHT22;26570;50.962;5.340;2023-04-29T12:48:27;16.70;99.90
40848;DHT22;26570;50.962;5.340;2023-04-29T12:51:33;16.90;99.90
40848;DHT22;26570;50.962;5.340;2023-04-29T12:54:52;16.80;99.90
40848;DHT22;26570;50.962;5.340;2023-04-29T12:57:41;17.00;99.90
40848;DHT22;26570;50.962;5.340;2023-04-29T13:00:31;17.00;99.90
40848;DHT22;26570;50.962;5.340;2023-04-29T13:03:42;16.80;99.90
40848;DHT22;26570;50.962;5.340;2023-04-29T13:06:38;16.90;99.90
40848;DHT22;26570;50.962;5.340;2023-04-29T13:09:31;17.00;99.90
40848;DHT22;26570;50.962;5.340;2023-04-29T13:12:21;17.20;99.90
40848;DHT22;26570;50.962;5.340;2023-04-29T13:15:36;17.30;99.90
40848;DHT22;26570;50.962;5.340;2023-04-29T13:18:27;17.50;99.90
40848;DHT22;26570;50.962;5.340;2023-04-29T13:21:22;17.70;99.90
40848;DHT22;26570;50.962;5.340;2023-04-29T13:24:12;17.60;99.90
40848;DHT22;26570;50.962;5.340;2023-04-29T13:27:05;17.60;99.90
40848;DHT22;26570;50.962;5.340;2023-04-29T13:29:57;17.80;99.90
40848;DHT22;26570;50.962;5.340;2023-04-29T13:32:47;18.00;99.90
40848;DHT22;26570;50.962;5.340;2023-04-29T13:35:40;18.00;99.90
40848;DHT22;26570;50.962;5.340;2023-04-29T13:38:34;18.00;99.90
40848;DHT22;26570;50.962;5.340;2023-04-29T13:41:25;17.90;99.90
40848;DHT22;26570;50.962;5.340;2023-04-29T13:44:14;17.80;99.90
40848;DHT22;26570;50.962;5.340;2023-04-29T13:47:08;18.10;99.90
40848;DHT22;26570;50.962;5.340;2023-04-29T13:49:58;18.00;99.90
40848;DHT22;26570;50.962;5.340;2023-04-29T13:52:57;17.70;99.90
40848;DHT22;26570;50.962;5.340;2023-04-29T13:55:46;18.10;99.90
40848;DHT22;26570;50.962;5.340;2023-04-29T13:58:37;18.30;99.90
40848;DHT22;26570;50.962;5.340;2023-04-29T14:01:27;18.30;99.90
40848;DHT22;26570;50.962;5.340;2023-04-29T14:04:22;18.20;99.90
40848;DHT22;26570;50.962;5.340;2023-04-29T14:07:16;18.20;99.90
40848;DHT22;26570;50.962;5.340;2023-04-29T14:10:06;18.00;99.90
40848;DHT22;26570;50.962;5.340;2023-04-29T14:13:03;18.20;99.90
40848;DHT22;26570;50.962;5.340;2023-04-29T14:15:55;18.00;99.90
40848;DHT22;26570;50.962;5.340;2023-04-29T14:19:15;17.90;99.90
40848;DHT22;26570;50.962;5.340;2023-04-29T14:22:06;18.00;99.90
40848;DHT22;26570;50.962;5.340;2023-04-29T14:24:57;18.00;99.90
40848;DHT22;26570;50.962;5.340;2023-04-29T14:27:48;18.00;99.90
40848;DHT22;26570;50.962;5.340;2023-04-29T14:30:39;17.90;99.90
40848;DHT22;26570;50.962;5.340;2023-04-29T14:33:30;18.00;99.90
40848;DHT22;26570;50.962;5.340;2023-04-29T14:36:25;17.80;99.90
40848;DHT22;26570;50.962;5.340;2023-04-29T14:39:15;17.60;99.90
40848;DHT22;26570;50.962;5.340;2023-04-29T14:42:05;17.40;99.90
40848;DHT22;26570;50.962;5.340;2023-04-29T14:44:58;17.40;99.90
40848;DHT22;26570;50.962;5.340;2023-04-29T14:47:49;17.30;99.90
40848;DHT22;26570;50.962;5.340;2023-04-29T14:50:38;17.20;99.90
40848;DHT22;26570;50.962;5.340;2023-04-29T14:53:27;17.20;99.90
40848;DHT22;26570;50.962;5.340;2023-04-29T14:56:25;17.40;99.90
40848;DHT22;26570;50.962;5.340;2023-04-29T14:59:24;17.40;99.90
40848;DHT22;26570;50.962;5.340;2023-04-29T15:02:38;17.30;99.90
40848;DHT22;26570;50.962;5.340;2023-04-29T15:05:36;17.40;99.90
40848;DHT22;26570;50.962;5.340;2023-04-29T15:08:29;17.60;99.90
40848;DHT22;26570;50.962;5.340;2023-04-29T15:11:17;17.70;99.90
40848;DHT22;26570;50.962;5.340;2023-04-29T15:14:06;17.80;99.90
40848;DHT22;26570;50.962;5.340;2023-04-29T15:16:54;18.10;99.90
40848;DHT22;26570;50.962;5.340;2023-04-29T15:19:45;18.20;99.90
40848;DHT22;26570;50.962;5.340;2023-04-29T15:22:49;18.40;99.90
40848;DHT22;26570;50.962;5.340;2023-04-29T15:25:39;18.30;99.90
40848;DHT22;26570;50.962;5.340;2023-04-29T15:28:31;18.30;99.90
40848;DHT22;26570;50.962;5.340;2023-04-29T15:31:21;17.90;99.90
40848;DHT22;26570;50.962;5.340;2023-04-29T15:34:12;18.00;99.90
40848;DHT22;26570;50.962;5.340;2023-04-29T15:37:09;18.10;99.90
40848;DHT22;26570;50.962;5.340;2023-04-29T15:39:59;18.00;99.90
40848;DHT22;26570;50.962;5.340;2023-04-29T15:42:54;17.80;99.90
40848;DHT22;26570;50.962;5.340;2023-04-29T15:45:48;17.70;99.90
40848;DHT22;26570;50.962;5.340;2023-04-29T15:48:40;17.80;99.90
40848;DHT22;26570;50.962;5.340;2023-04-29T15:51:30;17.80;99.90
40848;DHT22;26570;50.962;5.340;2023-04-29T15:54:25;18.00;99.90
40848;DHT22;26570;50.962;5.340;2023-04-29T15:57:20;18.00;99.90
40848;DHT22;26570;50.962;5.340;2023-04-29T16:00:11;17.90;99.90
40848;DHT22;26570;50.962;5.340;2023-04-29T16:03:02;18.10;99.90
40848;DHT22;26570;50.962;5.340;2023-04-29T16:06:06;17.90;99.90
40848;DHT22;26570;50.962;5.340;2023-04-29T16:08:57;17.80;99.90
40848;DHT22;26570;50.962;5.340;2023-04-29T16:11:46;17.70;99.90
40848;DHT22;26570;50.962;5.340;2023-04-29T16:15:02;17.50;99.90
40848;DHT22;26570;50.962;5.340;2023-04-29T16:17:53;17.70;99.90
40848;DHT22;26570;50.962;5.340;2023-04-29T16:20:47;17.70;99.90
40848;DHT22;26570;50.962;5.340;2023-04-29T16:23:39;17.70;99.90
40848;DHT22;26570;50.962;5.340;2023-04-29T16:26:31;17.60;99.90
40848;DHT22;26570;50.962;5.340;2023-04-29T16:29:45;17.60;99.90
40848;DHT22;26570;50.962;5.340;2023-04-29T16:32:40;17.70;99.90
40848;DHT22;26570;50.962;5.340;2023-04-29T16:35:29;17.50;99.90
40848;DHT22;26570;50.962;5.340;2023-04-29T16:38:21;17.60;99.90
40848;DHT22;26570;50.962;5.340;2023-04-29T16:41:13;17.40;99.90
40848;DHT22;26570;50.962;5.340;2023-04-29T16:44:04;17.40;99.90
40848;DHT22;26570;50.962;5.340;2023-04-29T16:46:56;17.40;99.90
40848;DHT22;26570;50.962;5.340;2023-04-29T16:49:45;17.30;99.90
40848;DHT22;26570;50.962;5.340;2023-04-29T16:52:40;17.40;99.90
40848;DHT22;26570;50.962;5.340;2023-04-29T16:55:30;17.20;99.90
40848;DHT22;26570;50.962;5.340;2023-04-29T16:58:20;17.20;99.90
40848;DHT22;26570;50.962;5.340;2023-04-29T17:01:09;17.20;99.90
40848;DHT22;26570;50.962;5.340;2023-04-29T17:04:22;17.40;99.90
40848;DHT22;26570;50.962;5.340;2023-04-29T17:07:13;17.30;99.90
40848;DHT22;26570;50.962;5.340;2023-04-29T17:10:05;17.50;99.90
40848;DHT22;26570;50.962;5.340;2023-04-29T17:12:54;17.30;99.90
40848;DHT22;26570;50.962;5.340;2023-04-29T17:15:46;17.20;99.90
40848;DHT22;26570;50.962;5.340;2023-04-29T17:18:36;17.10;99.90
40848;DHT22;26570;50.962;5.340;2023-04-29T17:21:53;17.20;99.90
40848;DHT22;26570;50.962;5.340;2023-04-29T17:24:43;17.20;99.90
40848;DHT22;26570;50.962;5.340;2023-04-29T17:27:32;17.10;99.90
40848;DHT22;26570;50.962;5.340;2023-04-29T17:30:31;17.20;99.90
40848;DHT22;26570;50.962;5.340;2023-04-29T17:33:22;17.10;99.90
40848;DHT22;26570;50.962;5.340;2023-04-29T17:36:24;17.20;99.90
40848;DHT22;26570;50.962;5.340;2023-04-29T17:39:18;17.10;99.90
40848;DHT22;26570;50.962;5.340;2023-04-29T17:42:12;17.00;99.90
40848;DHT22;26570;50.962;5.340;2023-04-29T17:45:05;16.90;99.90
40848;DHT22;26570;50.962;5.340;2023-04-29T17:47:56;16.90;99.90
40848;DHT22;26570;50.962;5.340;2023-04-29T17:50:46;16.90;99.90
40848;DHT22;26570;50.962;5.340;2023-04-29T17:53:58;16.90;99.90
40848;DHT22;26570;50.962;5.340;2023-04-29T17:56:46;16.80;99.90
40848;DHT22;26570;50.962;5.340;2023-04-29T17:59:34;16.80;99.90
40848;DHT22;26570;50.962;5.340;2023-04-29T18:02:26;16.80;99.90
40848;DHT22;26570;50.962;5.340;2023-04-29T18:05:18;16.70;99.90
40848;DHT22;26570;50.962;5.340;2023-04-29T18:08:10;16.60;99.90
40848;DHT22;26570;50.962;5.340;2023-04-29T18:11:05;16.70;99.90
40848;DHT22;26570;50.962;5.340;2023-04-29T18:14:17;16.60;99.90
40848;DHT22;26570;50.962;5.340;2023-04-29T18:17:10;16.50;99.90
40848;DHT22;26570;50.962;5.340;2023-04-29T18:19:59;16.20;99.90
40848;DHT22;26570;50.962;5.340;2023-04-29T18:23:15;16.00;99.90
40848;DHT22;26570;50.962;5.340;2023-04-29T18:26:04;15.70;99.90
40848;DHT22;26570;50.962;5.340;2023-04-29T18:29:00;15.60;99.90
40848;DHT22;26570;50.962;5.340;2023-04-29T18:31:51;15.50;99.90
40848;DHT22;26570;50.962;5.340;2023-04-29T18:34:41;15.30;99.90
40848;DHT22;26570;50.962;5.340;2023-04-29T18:37:31;15.20;99.90
40848;DHT22;26570;50.962;5.340;2023-04-29T18:40:21;15.10;99.90
40848;DHT22;26570;50.962;5.340;2023-04-29T18:43:11;14.80;99.90
40848;DHT22;26570;50.962;5.340;2023-04-29T18:46:04;14.60;99.90
40848;DHT22;26570;50.962;5.340;2023-04-29T18:48:56;14.40;99.90
40848;DHT22;26570;50.962;5.340;2023-04-29T18:51:46;14.30;99.90
40848;DHT22;26570;50.962;5.340;2023-04-29T18:54:38;14.10;99.90
40848;DHT22;26570;50.962;5.340;2023-04-29T18:57:34;13.90;99.90
40848;DHT22;26570;50.962;5.340;2023-04-29T19:00:23;13.80;99.90
40848;DHT22;26570;50.962;5.340;2023-04-29T19:03:10;13.60;99.90
40848;DHT22;26570;50.962;5.340;2023-04-29T19:06:03;13.60;99.90
40848;DHT22;26570;50.962;5.340;2023-04-29T19:09:17;13.40;99.90
40848;DHT22;26570;50.962;5.340;2023-04-29T19:12:09;13.30;99.90
40848;DHT22;26570;50.962;5.340;2023-04-29T19:15:00;13.00;99.90
40848;DHT22;26570;50.962;5.340;2023-04-29T19:17:51;13.00;99.90
40848;DHT22;26570;50.962;5.340;2023-04-29T19:20:42;12.90;99.90
40848;DHT22;26570;50.962;5.340;2023-04-29T19:23:48;12.80;99.90
40848;DHT22;26570;50.962;5.340;2023-04-29T19:27:12;12.70;99.90
40848;DHT22;26570;50.962;5.340;2023-04-29T19:30:02;12.40;99.90
40848;DHT22;26570;50.962;5.340;2023-04-29T19:32:55;12.60;99.90
40848;DHT22;26570;50.962;5.340;2023-04-29T19:35:52;12.60;99.90
40848;DHT22;26570;50.962;5.340;2023-04-29T19:38:42;12.60;99.90
40848;DHT22;26570;50.962;5.340;2023-04-29T19:41:33;12.60;99.90
40848;DHT22;26570;50.962;5.340;2023-04-29T19:44:23;12.50;99.90
40848;DHT22;26570;50.962;5.340;2023-04-29T19:47:21;12.50;99.90
40848;DHT22;26570;50.962;5.340;2023-04-29T19:50:26;12.50;99.90
40848;DHT22;26570;50.962;5.340;2023-04-29T19:53:23;12.40;99.90
40848;DHT22;26570;50.962;5.340;2023-04-29T19:56:13;12.10;99.90
40848;DHT22;26570;50.962;5.340;2023-04-29T19:59:11;12.40;99.90
40848;DHT22;26570;50.962;5.340;2023-04-29T20:01:56;12.50;99.90
40848;DHT22;26570;50.962;5.340;2023-04-29T20:04:49;12.40;99.90
40848;DHT22;26570;50.962;5.340;2023-04-29T20:07:40;12.60;99.90
40848;DHT22;26570;50.962;5.340;2023-04-29T20:10:36;12.50;99.90
40848;DHT22;26570;50.962;5.340;2023-04-29T20:13:29;12.50;99.90
40848;DHT22;26570;50.962;5.340;2023-04-29T20:16:22;12.40;99.90
40848;DHT22;26570;50.962;5.340;2023-04-29T20:19:37;12.40;99.90
40848;DHT22;26570;50.962;5.340;2023-04-29T20:22:29;12.30;99.90
40848;DHT22;26570;50.962;5.340;2023-04-29T20:25:25;12.30;99.90
40848;DHT22;26570;50.962;5.340;2023-04-29T20:28:21;12.30;99.90
40848;DHT22;26570;50.962;5.340;2023-04-29T20:31:20;12.20;99.90
40848;DHT22;26570;50.962;5.340;2023-04-29T20:34:11;12.30;99.90
40848;DHT22;26570;50.962;5.340;2023-04-29T20:37:01;12.30;99.90
40848;DHT22;26570;50.962;5.340;2023-04-29T20:40:05;12.20;99.90
40848;DHT22;26570;50.962;5.340;2023-04-29T20:43:39;12.30;99.90
40848;DHT22;26570;50.962;5.340;2023-04-29T20:46:28;12.40;99.90
40848;DHT22;26570;50.962;5.340;2023-04-29T20:49:21;12.40;99.90
40848;DHT22;26570;50.962;5.340;2023-04-29T20:52:14;12.40;99.90
40848;DHT22;26570;50.962;5.340;2023-04-29T20:55:08;12.40;99.90
40848;DHT22;26570;50.962;5.340;2023-04-29T21:05:41;12.60;99.90
40848;DHT22;26570;50.962;5.340;2023-04-29T21:08:43;12.60;99.90
40848;DHT22;26570;50.962;5.340;2023-04-29T21:11:35;12.50;99.90
40848;DHT22;26570;50.962;5.340;2023-04-29T21:14:33;12.40;99.90
40848;DHT22;26570;50.962;5.340;2023-04-29T21:17:23;12.40;99.90
40848;DHT22;26570;50.962;5.340;2023-04-29T21:20:33;12.40;99.90
40848;DHT22;26570;50.962;5.340;2023-04-29T21:23:26;12.50;99.90
40848;DHT22;26570;50.962;5.340;2023-04-29T21:26:15;12.60;99.90
40848;DHT22;26570;50.962;5.340;2023-04-29T21:29:14;12.60;99.90
40848;DHT22;26570;50.962;5.340;2023-04-29T21:32:08;12.60;99.90
40848;DHT22;26570;50.962;5.340;2023-04-29T21:35:31;12.50;99.90
40848;DHT22;26570;50.962;5.340;2023-04-29T21:50:08;12.20;99.90
40848;DHT22;26570;50.962;5.340;2023-04-29T21:52:59;12.00;99.90
40848;DHT22;26570;50.962;5.340;2023-04-29T21:55:50;12.10;99.90
40848;DHT22;26570;50.962;5.340;2023-04-29T21:59:07;12.00;99.90
40848;DHT22;26570;50.962;5.340;2023-04-29T22:02:31;11.80;99.90
40848;DHT22;26570;50.962;5.340;2023-04-29T22:06:00;11.90;99.90
40848;DHT22;26570;50.962;5.340;2023-04-29T22:08:51;11.80;99.90
40848;DHT22;26570;50.962;5.340;2023-04-29T22:11:57;11.90;99.90
40848;DHT22;26570;50.962;5.340;2023-04-29T22:14:55;11.90;99.90
40848;DHT22;26570;50.962;5.340;2023-04-29T22:17:55;11.80;99.90
40848;DHT22;26570;50.962;5.340;2023-04-29T22:21:02;11.70;99.90
40848;DHT22;26570;50.962;5.340;2023-04-29T22:24:02;11.60;99.90
40848;DHT22;26570;50.962;5.340;2023-04-29T22:26:55;11.60;99.90
40848;DHT22;26570;50.962;5.340;2023-04-29T22:30:11;11.50;99.90
40848;DHT22;26570;50.962;5.340;2023-04-29T22:33:09;11.40;99.90
40848;DHT22;26570;50.962;5.340;2023-04-29T22:36:08;11.30;99.90
40848;DHT22;26570;50.962;5.340;2023-04-29T22:39:01;11.30;99.90
40848;DHT22;26570;50.962;5.340;2023-04-29T22:42:16;11.40;99.90
40848;DHT22;26570;50.962;5.340;2023-04-29T22:45:27;11.40;99.90
40848;DHT22;26570;50.962;5.340;2023-04-29T22:48:47;11.30;99.90
40848;DHT22;26570;50.962;5.340;2023-04-29T22:52:02;11.40;99.90
40848;DHT22;26570;50.962;5.340;2023-04-29T22:55:28;11.50;99.90
40848;DHT22;26570;50.962;5.340;2023-04-29T22:58:28;11.50;99.90
